createdAt,value
2023-01-27T05:04:40.092Z,2.50
2023-01-27T05:07:08.461Z,2.60
2023-01-27T05:09:36.833Z,2.60
2023-01-27T05:12:05.692Z,2.60
2023-01-27T05:14:34.475Z,2.60
2023-01-27T05:17:03.040Z,2.60
2023-01-27T05:19:38.431Z,2.60
2023-01-27T05:22:06.839Z,2.60
2023-01-27T05:24:35.081Z,2.60
2023-01-27T05:27:04.065Z,2.70
2023-01-27T05:29:32.885Z,2.70
2023-01-27T05:32:01.654Z,2.70
2023-01-27T05:34:30.325Z,2.70
2023-01-27T05:37:00.036Z,2.70
2023-01-27T05:39:29.023Z,2.70
2023-01-27T05:41:57.372Z,2.70
2023-01-27T05:44:25.850Z,2.70
2023-01-27T05:46:53.995Z,2.70
2023-01-27T05:49:23.458Z,2.70
2023-01-27T05:51:51.964Z,2.70
2023-01-27T05:54:21.809Z,2.70
2023-01-27T05:56:50.567Z,2.70
2023-01-27T05:59:19.848Z,2.70
2023-01-27T06:01:48.224Z,2.70
2023-01-27T06:04:16.708Z,2.80
2023-01-27T06:06:44.859Z,2.70
2023-01-27T06:09:13.404Z,2.70
2023-01-27T06:11:43.287Z,2.70
2023-01-27T06:14:11.812Z,2.70
2023-01-27T06:16:40.811Z,2.70
2023-01-27T06:19:09.312Z,2.70
2023-01-27T06:21:38.064Z,2.70
2023-01-27T06:24:07.053Z,2.70
2023-01-27T06:26:35.538Z,2.70
2023-01-27T06:29:05.952Z,2.70
2023-01-27T06:31:37.394Z,2.70
2023-01-27T06:34:05.528Z,2.70
2023-01-27T06:36:34.301Z,2.70
2023-01-27T06:39:02.910Z,2.70
2023-01-27T06:41:31.296Z,2.70
2023-01-27T06:43:59.632Z,2.70
2023-01-27T06:46:29.618Z,2.80
2023-01-27T06:48:58.027Z,2.80
2023-01-27T06:51:26.728Z,2.80
2023-01-27T06:53:55.144Z,2.80
2023-01-27T06:56:29.952Z,2.90
2023-01-27T06:58:59.034Z,2.90
2023-01-27T07:01:35.258Z,2.90
2023-01-27T07:04:03.951Z,2.90
2023-01-27T07:06:32.431Z,2.90
2023-01-27T07:09:00.621Z,2.90
2023-01-27T07:11:28.704Z,2.90
2023-01-27T07:13:56.927Z,2.90
2023-01-27T07:16:27.506Z,2.90
2023-01-27T07:18:56.993Z,2.90
2023-01-27T07:21:26.298Z,2.90
2023-01-27T07:23:54.851Z,2.90
2023-01-27T07:26:25.135Z,2.90
2023-01-27T07:28:54.344Z,2.90
2023-01-27T07:31:28.906Z,2.90
2023-01-27T07:33:58.846Z,2.90
2023-01-27T07:36:27.336Z,3.00
2023-01-27T07:38:55.813Z,3.00
2023-01-27T07:41:26.189Z,3.00
2023-01-27T07:43:54.433Z,3.00
2023-01-27T07:46:22.749Z,3.00
2023-01-27T07:48:51.022Z,3.00
2023-01-27T07:51:21.162Z,3.00
2023-01-27T07:53:49.441Z,3.00
2023-01-27T07:56:17.892Z,3.00
2023-01-27T07:58:46.247Z,3.00
2023-01-27T08:01:15.010Z,3.00
2023-01-27T08:03:43.851Z,3.10
2023-01-27T08:06:14.539Z,3.00
2023-01-27T08:08:44.469Z,3.10
2023-01-27T08:11:15.419Z,3.10
2023-01-27T08:13:44.322Z,3.10
2023-01-27T08:16:14.277Z,3.10
2023-01-27T08:18:42.993Z,3.10
2023-01-27T08:21:13.326Z,3.20
2023-01-27T08:23:41.729Z,3.20
2023-01-27T08:26:11.685Z,3.20
2023-01-27T08:28:41.559Z,3.20
2023-01-27T08:31:13.156Z,3.20
2023-01-27T08:33:42.274Z,3.20
2023-01-27T08:36:15.323Z,3.30
2023-01-27T08:38:44.302Z,3.30
2023-01-27T08:41:16.000Z,3.30
2023-01-27T08:43:45.162Z,3.40
2023-01-27T08:46:14.069Z,3.40
2023-01-27T08:48:42.778Z,3.40
2023-01-27T08:51:13.079Z,3.40
2023-01-27T08:53:41.757Z,3.40
2023-01-27T08:56:14.603Z,3.40
2023-01-27T08:58:43.490Z,3.40
2023-01-27T09:01:12.328Z,3.40
2023-01-27T09:03:40.747Z,3.40
2023-01-27T09:06:11.128Z,3.50
2023-01-27T09:08:39.511Z,3.50
2023-01-27T09:11:14.328Z,3.50
2023-01-27T09:13:43.183Z,3.50
2023-01-27T09:16:11.862Z,3.50
2023-01-27T09:18:40.153Z,3.50
2023-01-27T09:21:08.524Z,3.60
2023-01-27T09:23:36.840Z,3.60
2023-01-27T09:26:05.281Z,3.60
2023-01-27T09:28:35.164Z,3.50
2023-01-27T09:31:03.920Z,3.60
2023-01-27T09:33:32.211Z,3.60
2023-01-27T09:36:03.974Z,3.50
2023-01-27T09:38:36.197Z,3.60
2023-01-27T09:41:25.053Z,3.60
2023-01-27T09:44:05.189Z,3.60
2023-01-27T09:46:52.067Z,3.60
2023-01-27T09:49:46.943Z,3.60
2023-01-27T09:52:47.771Z,3.60
2023-01-27T09:55:20.736Z,3.60
2023-01-27T09:57:55.646Z,3.60
2023-01-27T10:00:37.536Z,3.60
2023-01-27T10:03:34.844Z,3.60
2023-01-27T10:06:34.871Z,3.70
2023-01-27T10:09:49.843Z,3.70
2023-01-27T10:12:30.808Z,3.70
2023-01-27T10:15:09.759Z,3.70
2023-01-27T10:17:45.891Z,3.70
2023-01-27T10:20:23.115Z,3.70
2023-01-27T10:23:00.490Z,3.70
2023-01-27T10:25:36.842Z,3.70
2023-01-27T10:28:12.288Z,3.70
2023-01-27T10:30:43.190Z,3.70
2023-01-27T10:33:18.304Z,3.80
2023-01-27T10:35:52.732Z,3.80
2023-01-27T10:38:32.263Z,3.80
2023-01-27T10:41:07.727Z,3.80
2023-01-27T10:43:47.727Z,3.80
2023-01-27T10:46:24.782Z,3.80
2023-01-27T10:48:59.076Z,3.80
2023-01-27T10:51:30.810Z,3.80
2023-01-27T10:54:02.500Z,3.80
2023-01-27T10:56:35.124Z,3.80
2023-01-27T10:59:07.344Z,3.80
2023-01-27T11:01:39.919Z,3.80
2023-01-27T11:04:13.770Z,3.80
2023-01-27T11:06:43.520Z,3.80
2023-01-27T11:09:23.827Z,3.90
2023-01-27T11:14:56.629Z,3.90
2023-01-27T11:17:30.322Z,3.90
2023-01-27T11:20:13.129Z,3.90
2023-01-27T11:22:49.877Z,3.90
2023-01-27T11:25:25.339Z,3.90
2023-01-27T11:28:01.288Z,4.00
2023-01-27T11:30:34.860Z,4.00
2023-01-27T11:33:07.654Z,3.90
2023-01-27T11:35:37.783Z,3.90
2023-01-27T11:38:15.265Z,3.90
2023-01-27T11:40:44.650Z,4.00
2023-01-27T11:43:17.653Z,3.90
2023-01-27T11:45:47.436Z,4.00
2023-01-27T11:48:18.152Z,4.00
2023-01-27T11:50:48.163Z,4.00
2023-01-27T11:53:22.226Z,3.90
2023-01-27T11:55:52.707Z,3.90
2023-01-27T11:58:25.893Z,3.90
2023-01-27T12:00:58.276Z,3.90
2023-01-27T12:03:31.936Z,3.90
2023-01-27T12:06:07.418Z,4.00
2023-01-27T12:08:41.744Z,4.00
2023-01-27T12:11:20.213Z,4.00
2023-01-27T12:13:53.898Z,4.00
2023-01-27T12:16:23.045Z,4.00
2023-01-27T12:18:56.151Z,4.00
2023-01-27T12:21:36.172Z,4.00
2023-01-27T12:24:04.976Z,4.00
2023-01-27T12:26:37.890Z,4.10
2023-01-27T12:29:08.393Z,4.10
2023-01-27T12:31:46.867Z,4.10
2023-01-27T12:34:27.389Z,4.10
2023-01-27T12:36:58.563Z,4.10
2023-01-27T12:39:32.346Z,4.10
2023-01-27T12:42:01.047Z,4.10
2023-01-27T12:44:43.048Z,4.10
2023-01-27T12:47:25.718Z,4.10
2023-01-27T12:49:54.057Z,4.10
2023-01-27T12:52:24.105Z,4.20
2023-01-27T12:54:54.187Z,4.20
2023-01-27T12:57:23.168Z,4.20
2023-01-27T12:59:54.240Z,4.20
2023-01-27T13:02:25.735Z,4.20
2023-01-27T13:04:56.134Z,4.20
2023-01-27T13:07:29.114Z,4.20
2023-01-27T13:10:11.986Z,4.20
2023-01-27T13:12:50.606Z,4.20
2023-01-27T13:15:20.799Z,4.20
2023-01-27T13:17:51.163Z,4.20
2023-01-27T13:20:23.243Z,4.20
2023-01-27T13:22:56.176Z,4.20
2023-01-27T13:25:26.346Z,4.20
2023-01-27T13:27:57.262Z,4.20
2023-01-27T13:30:31.861Z,4.20
2023-01-27T13:33:04.505Z,4.30
2023-01-27T13:35:36.448Z,4.20
2023-01-27T13:38:09.653Z,4.20
2023-01-27T13:40:41.759Z,4.20
2023-01-27T13:43:14.032Z,4.20
2023-01-27T13:45:46.151Z,4.10
2023-01-27T13:48:19.643Z,4.10
2023-01-27T13:50:50.106Z,4.10
2023-01-27T13:53:21.703Z,4.00
2023-01-27T13:56:00.563Z,4.00
2023-01-27T13:58:39.437Z,4.00
2023-01-27T14:01:13.639Z,4.00
2023-01-27T14:04:04.149Z,3.90
2023-01-27T14:06:39.138Z,3.90
2023-01-27T14:09:18.553Z,3.90
2023-01-27T14:11:49.358Z,3.90
2023-01-27T14:14:29.155Z,3.90
2023-01-27T14:17:08.706Z,3.80
2023-01-27T14:19:45.890Z,3.90
2023-01-27T14:22:20.870Z,3.80
2023-01-27T14:24:55.263Z,3.80
2023-01-27T14:27:27.755Z,3.80
2023-01-27T14:30:01.069Z,3.80
2023-01-27T14:32:32.813Z,3.80
2023-01-27T14:35:18.439Z,3.80
2023-01-27T14:37:54.998Z,3.80
2023-01-27T14:40:26.229Z,3.80
2023-01-27T14:43:06.344Z,3.80
2023-01-27T14:45:37.094Z,3.80
2023-01-27T14:48:12.783Z,3.80
2023-01-27T14:50:48.114Z,3.80
2023-01-27T14:53:26.969Z,3.80
2023-01-27T14:56:00.271Z,3.80
2023-01-27T14:58:39.716Z,3.80
2023-01-27T15:01:19.450Z,3.80
2023-01-27T15:04:28.313Z,3.80
2023-01-27T15:06:59.655Z,3.80
2023-01-27T15:09:43.579Z,3.80
2023-01-27T15:12:48.716Z,3.80
2023-01-27T15:16:02.300Z,3.80
2023-01-27T15:18:55.724Z,3.80
2023-01-27T15:21:37.084Z,3.90
2023-01-27T15:24:35.204Z,3.90
2023-01-27T15:27:04.209Z,3.90
2023-01-27T15:29:33.196Z,3.90
2023-01-27T15:32:27.426Z,3.90
2023-01-27T15:35:38.029Z,3.90
2023-01-27T15:38:30.820Z,3.80
2023-01-27T15:41:07.248Z,3.80
2023-01-27T15:43:40.893Z,3.80
2023-01-27T15:46:29.940Z,3.70
2023-01-27T15:49:00.681Z,3.80
2023-01-27T15:51:32.404Z,3.80
2023-01-27T15:54:01.393Z,3.80
2023-01-27T15:56:42.883Z,3.70
2023-01-27T15:59:19.281Z,3.70
2023-01-27T16:01:49.324Z,3.80
2023-01-27T16:04:22.000Z,3.70
2023-01-27T16:06:54.138Z,3.70
2023-01-27T16:09:28.851Z,3.70
2023-01-27T16:12:02.721Z,3.70
2023-01-27T16:14:42.521Z,3.80
2023-01-27T16:17:26.630Z,3.80
2023-01-27T16:20:04.480Z,3.80
2023-01-27T16:22:37.667Z,3.70
2023-01-27T16:25:23.719Z,3.70
2023-01-27T16:27:56.943Z,3.70
2023-01-27T16:30:28.718Z,3.70
2023-01-27T16:33:06.578Z,3.60
2023-01-27T16:35:40.812Z,3.70
2023-01-27T16:38:21.301Z,3.70
2023-01-27T16:40:53.060Z,3.70
2023-01-27T16:43:23.271Z,3.70
2023-01-27T16:45:53.638Z,3.70
2023-01-27T16:48:35.939Z,3.60
2023-01-27T16:51:12.291Z,3.70
2023-01-27T16:53:45.473Z,3.60
2023-01-27T16:56:21.875Z,3.60
2023-01-27T16:58:51.219Z,3.50
2023-01-27T17:01:24.345Z,3.60
2023-01-27T17:03:56.797Z,3.60
2023-01-27T17:06:27.018Z,3.60
2023-01-27T17:08:56.688Z,3.60
2023-01-27T17:11:26.723Z,3.50
2023-01-27T17:14:02.455Z,3.50
2023-01-27T17:16:34.887Z,3.60
2023-01-27T17:19:06.950Z,3.50
2023-01-27T17:21:38.416Z,3.50
2023-01-27T17:24:16.522Z,3.50
2023-01-27T17:26:48.054Z,3.50
2023-01-27T17:29:19.212Z,3.40
2023-01-27T17:31:47.994Z,3.50
2023-01-27T17:34:19.844Z,3.40
2023-01-27T17:37:08.410Z,3.40
2023-01-27T17:39:40.213Z,3.40
2023-01-27T17:42:08.836Z,3.30
2023-01-27T17:44:37.087Z,3.40
2023-01-27T17:47:09.041Z,3.30
2023-01-27T17:49:41.748Z,3.30
2023-01-27T17:52:11.711Z,3.30
2023-01-27T17:54:42.738Z,3.40
2023-01-27T17:57:17.215Z,3.30
2023-01-27T17:59:52.886Z,3.30
2023-01-27T18:02:24.324Z,3.30
2023-01-27T18:04:54.292Z,3.30
2023-01-27T18:07:23.290Z,3.30
2023-01-27T18:09:56.165Z,3.30
2023-01-27T18:12:31.385Z,3.30
2023-01-27T18:15:00.582Z,3.30
2023-01-27T18:17:32.211Z,3.30
2023-01-27T18:20:00.705Z,3.30
2023-01-27T18:22:29.547Z,3.30
2023-01-27T18:25:01.583Z,3.20
2023-01-27T18:27:35.077Z,3.20
2023-01-27T18:30:07.592Z,3.20
2023-01-27T18:32:43.778Z,3.30
2023-01-27T18:35:27.247Z,3.20
2023-01-27T18:37:58.437Z,3.30
2023-01-27T18:40:30.900Z,3.30
2023-01-27T18:42:59.733Z,3.20
2023-01-27T18:45:32.021Z,3.20
2023-01-27T18:48:03.934Z,3.20
2023-01-27T18:50:32.112Z,3.20
2023-01-27T18:53:00.252Z,3.20
2023-01-27T18:55:31.872Z,3.20
2023-01-27T18:58:01.384Z,3.10
2023-01-27T19:00:34.858Z,3.10
2023-01-27T19:03:05.161Z,3.10
2023-01-27T19:05:35.853Z,3.10
2023-01-27T19:08:04.981Z,3.10
2023-01-27T19:10:36.173Z,3.10
2023-01-27T19:13:05.714Z,3.10
2023-01-27T19:15:37.856Z,3.10
2023-01-27T19:18:14.449Z,3.10
2023-01-27T19:20:43.167Z,3.10
2023-01-27T19:23:14.601Z,3.10
2023-01-27T19:25:45.117Z,3.10
2023-01-27T19:28:16.862Z,3.00
2023-01-27T19:30:45.945Z,3.00
2023-01-27T19:33:21.881Z,3.00
2023-01-27T19:35:51.943Z,3.10
2023-01-27T19:38:23.112Z,3.00
2023-01-27T19:40:52.612Z,3.00
2023-01-27T19:43:20.800Z,3.00
2023-01-27T19:45:52.797Z,3.00
2023-01-27T19:48:22.888Z,3.00
2023-01-27T19:50:52.326Z,2.90
2023-01-27T19:53:21.548Z,2.90
2023-01-27T19:55:54.486Z,2.90
2023-01-27T19:58:25.169Z,2.90
2023-01-27T20:00:54.998Z,2.90
2023-01-27T20:03:31.198Z,2.90
2023-01-27T20:05:59.766Z,2.90
2023-01-27T20:08:28.371Z,2.90
2023-01-27T20:10:58.174Z,2.90
2023-01-27T20:13:26.553Z,2.90
2023-01-27T20:15:55.103Z,2.90
2023-01-27T20:18:24.027Z,2.90
2023-01-27T20:20:52.608Z,2.90
2023-01-27T20:23:21.259Z,2.90
2023-01-27T20:25:49.472Z,2.90
2023-01-27T20:28:19.078Z,2.80
2023-01-27T20:30:47.299Z,2.90
2023-01-27T20:33:16.046Z,2.90
2023-01-27T20:35:44.349Z,2.90
2023-01-27T20:38:13.895Z,2.80
2023-01-27T20:40:42.051Z,2.90
2023-01-27T20:43:12.465Z,2.90
2023-01-27T20:45:42.329Z,2.80
2023-01-27T20:48:12.523Z,2.80
2023-01-27T20:50:41.161Z,2.80
2023-01-27T20:53:09.485Z,2.80
2023-01-27T20:55:37.676Z,2.80
2023-01-27T20:58:05.774Z,2.80
2023-01-27T21:00:34.231Z,2.80
2023-01-27T21:03:04.374Z,2.80
2023-01-27T21:05:34.521Z,2.80
2023-01-27T21:08:03.011Z,2.90
2023-01-27T21:10:31.530Z,2.80
2023-01-27T21:12:59.804Z,2.80
2023-01-27T21:15:27.948Z,2.80
2023-01-27T21:17:56.717Z,2.80
2023-01-27T21:20:27.056Z,2.80
2023-01-27T21:22:55.757Z,2.80
2023-01-27T21:25:24.337Z,2.80
2023-01-27T21:27:52.742Z,2.80
2023-01-27T21:30:22.168Z,2.80
2023-01-27T21:32:50.757Z,2.80
2023-01-27T21:35:19.195Z,2.80
2023-01-27T21:37:49.588Z,2.70
2023-01-27T21:40:18.875Z,2.80
2023-01-27T21:43:07.881Z,2.80
2023-01-27T21:45:36.403Z,2.80
2023-01-27T21:48:05.451Z,2.70
2023-01-27T21:50:33.975Z,2.70
2023-01-27T21:53:09.984Z,2.70
2023-01-27T21:55:38.455Z,2.70
2023-01-27T21:58:06.738Z,2.60
2023-01-27T22:00:35.250Z,2.60
2023-01-27T22:03:05.647Z,2.60
2023-01-27T22:05:35.377Z,2.60
2023-01-27T22:08:06.856Z,2.60
2023-01-27T22:10:35.403Z,2.60
2023-01-27T22:13:05.695Z,2.60
2023-01-27T22:15:34.875Z,2.50
2023-01-27T22:18:03.313Z,2.60
2023-01-27T22:20:31.931Z,2.60
2023-01-27T22:23:00.602Z,2.60
2023-01-27T22:25:30.593Z,2.60
2023-01-27T22:27:59.075Z,2.60
2023-01-27T22:30:27.779Z,2.60
2023-01-27T22:32:56.439Z,2.60
2023-01-27T22:35:24.881Z,2.60
2023-01-27T22:37:53.369Z,2.50
2023-01-27T22:40:23.216Z,2.50
2023-01-27T22:42:53.206Z,2.40
2023-01-27T22:45:22.690Z,2.40
2023-01-27T22:47:51.218Z,2.40
